sensor_id;sensor_type;location;lat;lon;timestamp;P1;durP1;ratioP1;P2;durP2;ratioP2
1523;SDS011;755;53.658;10.118;2023-02-15T00:05:39;134.20;;;39.75;;
1523;SDS011;755;53.658;10.118;2023-02-15T00:15:44;111.13;;;34.70;;
1523;SDS011;755;53.658;10.118;2023-02-15T00:25:46;111.15;;;36.95;;
1523;SDS011;755;53.658;10.118;2023-02-15T00:35:55;114.72;;;36.63;;
1523;SDS011;755;53.658;10.118;2023-02-15T00:45:57;111.68;;;36.20;;
1523;SDS011;755;53.658;10.118;2023-02-15T00:56:00;110.10;;;37.55;;
1523;SDS011;755;53.658;10.118;2023-02-15T01:06:02;174.13;;;37.80;;
1523;SDS011;755;53.658;10.118;2023-02-15T01:16:07;154.77;;;39.00;;
1523;SDS011;755;53.658;10.118;2023-02-15T01:26:09;164.07;;;40.03;;
1523;SDS011;755;53.658;10.118;2023-02-15T01:36:13;125.85;;;39.22;;
1523;SDS011;755;53.658;10.118;2023-02-15T01:46:18;145.05;;;40.80;;
1523;SDS011;755;53.658;10.118;2023-02-15T01:56:24;120.60;;;39.50;;
1523;SDS011;755;53.658;10.118;2023-02-15T02:06:29;132.20;;;41.57;;
1523;SDS011;755;53.658;10.118;2023-02-15T02:16:35;144.10;;;36.63;;
1523;SDS011;755;53.658;10.118;2023-02-15T02:37:17;120.88;;;38.90;;
1523;SDS011;755;53.658;10.118;2023-02-15T02:47:26;128.90;;;35.65;;
1523;SDS011;755;53.658;10.118;2023-02-15T02:57:35;107.13;;;36.13;;
1523;SDS011;755;53.658;10.118;2023-02-15T03:07:41;119.15;;;37.45;;
1523;SDS011;755;53.658;10.118;2023-02-15T03:17:51;133.68;;;38.67;;
1523;SDS011;755;53.658;10.118;2023-02-15T03:27:58;128.90;;;36.88;;
1523;SDS011;755;53.658;10.118;2023-02-15T03:38:06;108.33;;;35.20;;
1523;SDS011;755;53.658;10.118;2023-02-15T03:48:10;132.30;;;36.40;;
1523;SDS011;755;53.658;10.118;2023-02-15T03:58:13;121.75;;;33.83;;
1523;SDS011;755;53.658;10.118;2023-02-15T04:08:33;118.15;;;31.33;;
1523;SDS011;755;53.658;10.118;2023-02-15T04:18:54;121.28;;;34.20;;
1523;SDS011;755;53.658;10.118;2023-02-15T04:29:13;205.80;;;35.90;;
1523;SDS011;755;53.658;10.118;2023-02-15T04:39:17;116.85;;;34.90;;
1523;SDS011;755;53.658;10.118;2023-02-15T04:49:20;144.18;;;36.13;;
1523;SDS011;755;53.658;10.118;2023-02-15T04:59:23;125.53;;;35.50;;
1523;SDS011;755;53.658;10.118;2023-02-15T05:09:25;99.88;;;33.75;;
1523;SDS011;755;53.658;10.118;2023-02-15T05:19:28;164.60;;;33.78;;
1523;SDS011;755;53.658;10.118;2023-02-15T05:29:30;103.78;;;29.70;;
1523;SDS011;755;53.658;10.118;2023-02-15T05:39:33;104.88;;;31.00;;
1523;SDS011;755;53.658;10.118;2023-02-15T05:49:35;98.78;;;32.05;;
1523;SDS011;755;53.658;10.118;2023-02-15T05:59:38;125.07;;;31.63;;
1523;SDS011;755;53.658;10.118;2023-02-15T06:09:40;130.57;;;29.88;;
1523;SDS011;755;53.658;10.118;2023-02-15T06:19:44;99.00;;;28.25;;
1523;SDS011;755;53.658;10.118;2023-02-15T06:29:45;106.05;;;29.23;;
1523;SDS011;755;53.658;10.118;2023-02-15T06:39:49;99.82;;;25.83;;
1523;SDS011;755;53.658;10.118;2023-02-15T06:49:51;140.15;;;28.15;;
1523;SDS011;755;53.658;10.118;2023-02-15T06:59:54;109.05;;;28.42;;
1523;SDS011;755;53.658;10.118;2023-02-15T07:09:58;105.13;;;28.07;;
1523;SDS011;755;53.658;10.118;2023-02-15T07:20:02;120.82;;;26.98;;
1523;SDS011;755;53.658;10.118;2023-02-15T07:30:05;97.30;;;27.15;;
1523;SDS011;755;53.658;10.118;2023-02-15T07:40:10;123.20;;;26.75;;
1523;SDS011;755;53.658;10.118;2023-02-15T07:50:13;76.82;;;25.08;;
1523;SDS011;755;53.658;10.118;2023-02-15T08:00:17;177.20;;;27.55;;
1523;SDS011;755;53.658;10.118;2023-02-15T08:10:23;112.50;;;27.30;;
1523;SDS011;755;53.658;10.118;2023-02-15T08:20:50;91.78;;;27.70;;
1523;SDS011;755;53.658;10.118;2023-02-15T08:31:03;111.30;;;27.25;;
1523;SDS011;755;53.658;10.118;2023-02-15T08:41:12;79.85;;;28.48;;
1523;SDS011;755;53.658;10.118;2023-02-15T08:51:25;82.93;;;26.48;;
1523;SDS011;755;53.658;10.118;2023-02-15T09:01:49;78.95;;;29.60;;
1523;SDS011;755;53.658;10.118;2023-02-15T09:12:04;82.97;;;26.05;;
1523;SDS011;755;53.658;10.118;2023-02-15T09:33:37;80.78;;;28.13;;
1523;SDS011;755;53.658;10.118;2023-02-15T09:43:51;95.63;;;29.27;;
1523;SDS011;755;53.658;10.118;2023-02-15T09:54:04;84.13;;;31.02;;
1523;SDS011;755;53.658;10.118;2023-02-15T10:04:37;85.68;;;31.40;;
1523;SDS011;755;53.658;10.118;2023-02-15T10:15:00;116.57;;;32.00;;
1523;SDS011;755;53.658;10.118;2023-02-15T10:35:24;95.63;;;31.95;;
1523;SDS011;755;53.658;10.118;2023-02-15T10:45:34;90.80;;;32.13;;
1523;SDS011;755;53.658;10.118;2023-02-15T10:55:49;103.47;;;36.13;;
1523;SDS011;755;53.658;10.118;2023-02-15T11:05:58;102.72;;;35.30;;
1523;SDS011;755;53.658;10.118;2023-02-15T11:16:06;103.80;;;37.15;;
1523;SDS011;755;53.658;10.118;2023-02-15T11:26:15;115.55;;;36.63;;
1523;SDS011;755;53.658;10.118;2023-02-15T11:36:22;115.40;;;38.13;;
1523;SDS011;755;53.658;10.118;2023-02-15T11:56:30;134.32;;;44.72;;
1523;SDS011;755;53.658;10.118;2023-02-15T12:06:35;132.77;;;44.33;;
1523;SDS011;755;53.658;10.118;2023-02-15T12:27:47;129.40;;;46.67;;
1523;SDS011;755;53.658;10.118;2023-02-15T12:37:53;128.18;;;46.92;;
1523;SDS011;755;53.658;10.118;2023-02-15T12:48:14;127.55;;;46.58;;
1523;SDS011;755;53.658;10.118;2023-02-15T12:58:18;130.20;;;47.30;;
1523;SDS011;755;53.658;10.118;2023-02-15T13:08:26;122.43;;;46.88;;
1523;SDS011;755;53.658;10.118;2023-02-15T13:18:30;137.50;;;49.53;;
1523;SDS011;755;53.658;10.118;2023-02-15T13:28:37;122.15;;;47.72;;
1523;SDS011;755;53.658;10.118;2023-02-15T13:38:57;106.93;;;44.13;;
1523;SDS011;755;53.658;10.118;2023-02-15T13:49:12;113.40;;;42.88;;
1523;SDS011;755;53.658;10.118;2023-02-15T13:59:26;100.70;;;41.60;;
1523;SDS011;755;53.658;10.118;2023-02-15T14:09:38;100.00;;;42.47;;
1523;SDS011;755;53.658;10.118;2023-02-15T14:19:50;102.38;;;42.17;;
1523;SDS011;755;53.658;10.118;2023-02-15T14:29:57;101.57;;;43.10;;
1523;SDS011;755;53.658;10.118;2023-02-15T14:40:03;92.40;;;39.70;;
1523;SDS011;755;53.658;10.118;2023-02-15T14:50:38;92.13;;;38.80;;
1523;SDS011;755;53.658;10.118;2023-02-15T15:00:45;98.20;;;40.33;;
1523;SDS011;755;53.658;10.118;2023-02-15T15:10:48;84.78;;;37.80;;
1523;SDS011;755;53.658;10.118;2023-02-15T15:20:50;85.07;;;37.22;;
1523;SDS011;755;53.658;10.118;2023-02-15T15:30:53;84.53;;;36.17;;
1523;SDS011;755;53.658;10.118;2023-02-15T15:41:09;77.28;;;33.92;;
1523;SDS011;755;53.658;10.118;2023-02-15T15:51:21;77.63;;;33.20;;
1523;SDS011;755;53.658;10.118;2023-02-15T16:01:30;65.78;;;30.02;;
1523;SDS011;755;53.658;10.118;2023-02-15T16:11:40;56.95;;;26.33;;
1523;SDS011;755;53.658;10.118;2023-02-15T16:21:43;54.30;;;25.73;;
1523;SDS011;755;53.658;10.118;2023-02-15T16:31:57;56.28;;;26.15;;
1523;SDS011;755;53.658;10.118;2023-02-15T16:42:00;55.28;;;26.90;;
1523;SDS011;755;53.658;10.118;2023-02-15T16:52:05;55.50;;;24.90;;
1523;SDS011;755;53.658;10.118;2023-02-15T17:02:11;65.47;;;29.33;;
1523;SDS011;755;53.658;10.118;2023-02-15T17:22:48;52.25;;;25.40;;
1523;SDS011;755;53.658;10.118;2023-02-15T17:32:53;60.97;;;27.35;;
1523;SDS011;755;53.658;10.118;2023-02-15T17:42:57;66.65;;;29.23;;
1523;SDS011;755;53.658;10.118;2023-02-15T17:53:01;61.15;;;26.92;;
1523;SDS011;755;53.658;10.118;2023-02-15T18:03:03;69.43;;;30.00;;
1523;SDS011;755;53.658;10.118;2023-02-15T18:13:32;62.72;;;27.67;;
1523;SDS011;755;53.658;10.118;2023-02-15T18:23:36;63.85;;;27.58;;
1523;SDS011;755;53.658;10.118;2023-02-15T18:33:41;56.78;;;25.77;;
1523;SDS011;755;53.658;10.118;2023-02-15T18:43:46;60.90;;;26.38;;
1523;SDS011;755;53.658;10.118;2023-02-15T18:53:51;59.25;;;25.55;;
1523;SDS011;755;53.658;10.118;2023-02-15T19:03:53;58.92;;;26.67;;
1523;SDS011;755;53.658;10.118;2023-02-15T19:13:57;54.47;;;25.55;;
1523;SDS011;755;53.658;10.118;2023-02-15T19:24:00;52.42;;;25.75;;
1523;SDS011;755;53.658;10.118;2023-02-15T19:34:10;62.10;;;27.23;;
1523;SDS011;755;53.658;10.118;2023-02-15T19:44:14;55.20;;;28.58;;
1523;SDS011;755;53.658;10.118;2023-02-15T19:54:24;57.40;;;25.67;;
1523;SDS011;755;53.658;10.118;2023-02-15T20:04:29;57.53;;;27.08;;
1523;SDS011;755;53.658;10.118;2023-02-15T20:14:33;60.88;;;28.63;;
1523;SDS011;755;53.658;10.118;2023-02-15T20:24:34;64.35;;;27.58;;
1523;SDS011;755;53.658;10.118;2023-02-15T20:34:38;72.28;;;33.30;;
1523;SDS011;755;53.658;10.118;2023-02-15T20:44:40;65.68;;;30.52;;
1523;SDS011;755;53.658;10.118;2023-02-15T20:54:43;62.90;;;25.90;;
1523;SDS011;755;53.658;10.118;2023-02-15T21:04:45;62.55;;;27.83;;
1523;SDS011;755;53.658;10.118;2023-02-15T21:14:48;64.22;;;28.67;;
1523;SDS011;755;53.658;10.118;2023-02-15T21:24:51;66.10;;;28.38;;
1523;SDS011;755;53.658;10.118;2023-02-15T21:34:55;67.93;;;30.80;;
1523;SDS011;755;53.658;10.118;2023-02-15T21:44:57;68.45;;;30.48;;
1523;SDS011;755;53.658;10.118;2023-02-15T21:55:18;68.82;;;32.95;;
1523;SDS011;755;53.658;10.118;2023-02-15T22:05:21;64.30;;;27.70;;
1523;SDS011;755;53.658;10.118;2023-02-15T22:15:28;56.75;;;27.48;;
1523;SDS011;755;53.658;10.118;2023-02-15T22:25:34;57.00;;;26.67;;
1523;SDS011;755;53.658;10.118;2023-02-15T22:35:37;60.45;;;26.33;;
1523;SDS011;755;53.658;10.118;2023-02-15T22:45:39;62.47;;;24.92;;
1523;SDS011;755;53.658;10.118;2023-02-15T22:55:43;59.15;;;24.67;;
1523;SDS011;755;53.658;10.118;2023-02-15T23:05:46;53.35;;;26.42;;
1523;SDS011;755;53.658;10.118;2023-02-15T23:15:51;59.45;;;24.13;;
1523;SDS011;755;53.658;10.118;2023-02-15T23:25:55;60.75;;;24.65;;
1523;SDS011;755;53.658;10.118;2023-02-15T23:36:00;57.78;;;22.60;;
1523;SDS011;755;53.658;10.118;2023-02-15T23:46:02;49.17;;;22.42;;
1523;SDS011;755;53.658;10.118;2023-02-15T23:56:09;50.10;;;22.20;;
